Time;durP1;ratioP1;P1;durP2;ratioP2;P2;SDS_P1;SDS_P2;PMS_P1;PMS_P2;Temp;Humidity;BMP_temperature;BMP_pressure;BME280_temperature;BME280_humidity;BME280_pressure;Samples;Min_cycle;Max_cycle;Signal;HPM_P1;HPM_P2
2021/12/30 00:01:57;;;;;;;4.47;3.72;;;;;;;;;;5075079;28;20071;-78
2021/12/30 00:04:24;;;;;;;4.57;3.72;;;;;;;;;;5075034;28;20099;-76
2021/12/30 00:06:50;;;;;;;5.35;4.15;;;;;;;;;;5074868;28;20491;-76
2021/12/30 00:09:18;;;;;;;5.60;3.90;;;;;;;;;;5074965;28;20024;-76
2021/12/30 00:11:44;;;;;;;5.38;3.95;;;;;;;;;;5074662;28;20021;-78
2021/12/30 00:14:10;;;;;;;5.30;4.45;;;;;;;;;;5074814;28;20428;-81
2021/12/30 00:16:37;;;;;;;5.65;4.13;;;;;;;;;;5074520;28;20099;-78
2021/12/30 00:19:13;;;;;;;5.07;4.25;;;;;;;;;;5074782;28;20067;-78
2021/12/30 00:21:40;;;;;;;4.18;3.35;;;;;;;;;;5074495;28;20103;-78
2021/12/30 00:24:06;;;;;;;5.25;4.05;;;;;;;;;;5074444;28;20052;-76
2021/12/30 00:26:32;;;;;;;4.43;3.63;;;;;;;;;;5074469;28;20028;-77
2021/12/30 00:28:58;;;;;;;5.45;4.07;;;;;;;;;;5074524;28;20028;-75
2021/12/30 00:31:25;;;;;;;4.53;3.53;;;;;;;;;;5074570;28;20028;-79
2021/12/30 00:33:51;;;;;;;5.57;3.70;;;;;;;;;;5074396;28;20527;-79
2021/12/30 00:36:17;;;;;;;4.78;3.50;;;;;;;;;;5074517;28;20028;-77
2021/12/30 00:38:44;;;;;;;4.38;3.13;;;;;;;;;;5073547;28;20021;-76
2021/12/30 00:41:10;;;;;;;5.15;3.30;;;;;;;;;;5073561;28;20028;-77
2021/12/30 00:43:37;;;;;;;5.47;3.58;;;;;;;;;;5074016;28;20109;-79
2021/12/30 00:46:04;;;;;;;4.75;3.03;;;;;;;;;;5074264;28;20060;-78
2021/12/30 00:48:32;;;;;;;4.32;3.08;;;;;;;;;;5074157;28;20063;-76
2021/12/30 00:50:59;;;;;;;4.72;3.45;;;;;;;;;;5074266;28;20072;-78
2021/12/30 00:53:25;;;;;;;4.53;3.08;;;;;;;;;;5074280;28;20494;-78
2021/12/30 00:55:55;;;;;;;4.07;3.05;;;;;;;;;;5073926;28;20039;-78
2021/12/30 00:58:21;;;;;;;5.88;2.70;;;;;;;;;;5072932;28;20037;-80
2021/12/30 01:00:47;;;;;;;3.08;2.35;;;;;;;;;;5073720;28;20562;-76
2021/12/30 01:03:14;;;;;;;2.83;2.63;;;;;;;;;;5072509;28;20028;-78
2021/12/30 01:05:40;;;;;;;3.00;2.03;;;;;;;;;;5073836;28;20021;-76
2021/12/30 01:08:07;;;;;;;3.55;2.53;;;;;;;;;;5073979;28;20906;-76
2021/12/30 01:10:35;;;;;;;2.63;1.77;;;;;;;;;;5074691;28;20448;-78
2021/12/30 01:13:06;;;;;;;2.92;2.08;;;;;;;;;;5073427;28;20032;-77
2021/12/30 01:15:45;;;;;;;2.50;1.77;;;;;;;;;;5073258;28;20095;-75
2021/12/30 01:21:08;;;;;;;3.78;2.53;;;;;;;;;;5068454;28;20035;-74
2021/12/30 01:23:35;;;;;;;2.15;1.50;;;;;;;;;;5073612;28;20032;-76
2021/12/30 01:26:01;;;;;;;3.00;1.98;;;;;;;;;;5073116;28;20070;-78
2021/12/30 01:28:30;;;;;;;2.50;1.73;;;;;;;;;;5073484;28;20062;-76
2021/12/30 01:30:56;;;;;;;4.43;2.13;;;;;;;;;;5073398;28;20032;-78
2021/12/30 01:33:23;;;;;;;2.97;1.95;;;;;;;;;;5073649;28;20020;-76
2021/12/30 01:35:49;;;;;;;2.22;1.92;;;;;;;;;;5073405;28;20063;-75
2021/12/30 01:38:16;;;;;;;3.00;2.33;;;;;;;;;;5072981;28;20058;-76
2021/12/30 01:40:44;;;;;;;3.15;2.15;;;;;;;;;;5073205;28;20021;-79
2021/12/30 01:43:11;;;;;;;2.45;1.70;;;;;;;;;;5072931;28;20467;-78
2021/12/30 01:45:38;;;;;;;3.00;2.40;;;;;;;;;;5073260;28;20028;-79
2021/12/30 01:48:04;;;;;;;2.55;2.13;;;;;;;;;;5072854;28;20028;-76
2021/12/30 01:50:30;;;;;;;2.72;2.15;;;;;;;;;;5072806;28;20024;-80
2021/12/30 01:52:58;;;;;;;3.20;1.90;;;;;;;;;;5073032;28;20028;-79
2021/12/30 01:55:24;;;;;;;2.90;2.10;;;;;;;;;;5072825;28;20111;-78
2021/12/30 01:57:53;;;;;;;2.63;1.92;;;;;;;;;;5073045;28;20024;-79
2021/12/30 02:00:21;;;;;;;3.28;1.90;;;;;;;;;;5072861;28;20151;-78
2021/12/30 02:02:47;;;;;;;2.88;1.70;;;;;;;;;;5072841;28;20064;-76
2021/12/30 02:05:14;;;;;;;2.45;1.70;;;;;;;;;;5072534;28;20035;-77
2021/12/30 02:07:40;;;;;;;2.55;1.48;;;;;;;;;;5072884;28;20024;-77
2021/12/30 02:10:07;;;;;;;2.72;1.85;;;;;;;;;;5072370;28;20020;-74
2021/12/30 02:12:34;;;;;;;2.55;1.60;;;;;;;;;;5071291;28;20028;-75
2021/12/30 02:15:01;;;;;;;2.58;1.80;;;;;;;;;;5071346;28;20433;-76
2021/12/30 02:17:30;;;;;;;1.63;1.10;;;;;;;;;;5072647;28;20056;-75
2021/12/30 02:20:00;;;;;;;1.77;1.48;;;;;;;;;;5072397;28;20024;-75
2021/12/30 02:22:26;;;;;;;1.70;1.33;;;;;;;;;;5072577;28;20094;-77
2021/12/30 02:24:53;;;;;;;1.55;1.13;;;;;;;;;;5072396;28;20048;-77
2021/12/30 02:27:22;;;;;;;2.67;1.70;;;;;;;;;;5071128;28;20024;-79
2021/12/30 02:29:48;;;;;;;2.20;1.60;;;;;;;;;;5072456;28;20038;-80
2021/12/30 02:32:17;;;;;;;2.08;1.20;;;;;;;;;;5072221;28;20538;-77
2021/12/30 02:34:43;;;;;;;1.95;1.10;;;;;;;;;;5072465;28;20032;-78
2021/12/30 02:37:11;;;;;;;2.08;1.48;;;;;;;;;;5072094;28;20021;-78
2021/12/30 02:39:37;;;;;;;1.80;1.50;;;;;;;;;;5072310;28;20034;-80
2021/12/30 02:42:03;;;;;;;2.53;1.42;;;;;;;;;;5072006;28;20033;-80
2021/12/30 02:44:29;;;;;;;1.83;1.33;;;;;;;;;;5071076;28;20426;-75
2021/12/30 02:46:57;;;;;;;1.88;1.35;;;;;;;;;;5072526;28;20047;-79
2021/12/30 02:49:24;;;;;;;1.70;1.15;;;;;;;;;;5070919;28;20035;-77
2021/12/30 02:51:50;;;;;;;1.85;1.20;;;;;;;;;;5072173;28;20035;-77
2021/12/30 02:54:16;;;;;;;4.25;1.50;;;;;;;;;;5071872;28;20107;-80
2021/12/30 02:56:46;;;;;;;1.65;1.15;;;;;;;;;;5072220;28;20036;-77
2021/12/30 02:59:13;;;;;;;2.28;1.52;;;;;;;;;;5071939;28;20067;-80
2021/12/30 03:01:40;;;;;;;2.15;1.40;;;;;;;;;;5072066;28;20496;-76
2021/12/30 03:04:06;;;;;;;2.65;1.73;;;;;;;;;;5075006;28;20105;-81
2021/12/30 03:06:33;;;;;;;3.10;1.40;;;;;;;;;;5076351;28;20024;-78
2021/12/30 03:08:59;;;;;;;2.03;1.20;;;;;;;;;;5076090;28;20028;-76
2021/12/30 03:11:28;;;;;;;2.38;1.60;;;;;;;;;;5076064;28;20052;-78
2021/12/30 03:13:54;;;;;;;3.65;1.60;;;;;;;;;;5076127;28;20408;-77
2021/12/30 03:16:25;;;;;;;3.28;2.08;;;;;;;;;;5075797;28;20108;-78
2021/12/30 03:18:51;;;;;;;2.65;1.55;;;;;;;;;;5076064;28;20112;-76
2021/12/30 03:21:19;;;;;;;3.47;2.42;;;;;;;;;;5074455;28;20032;-79
2021/12/30 03:23:45;;;;;;;3.05;1.77;;;;;;;;;;5073896;28;20038;-79
2021/12/30 03:26:11;;;;;;;2.97;2.20;;;;;;;;;;5075602;28;20024;-78
2021/12/30 03:28:42;;;;;;;2.25;1.67;;;;;;;;;;5075928;28;20103;-80
2021/12/30 03:31:09;;;;;;;2.78;1.75;;;;;;;;;;5075511;28;20364;-77
2021/12/30 03:33:35;;;;;;;2.55;1.45;;;;;;;;;;5074318;28;20034;-77
2021/12/30 03:36:02;;;;;;;2.65;2.00;;;;;;;;;;5075330;28;20029;-78
2021/12/30 03:38:29;;;;;;;3.35;2.03;;;;;;;;;;5075665;28;20105;-76
2021/12/30 03:40:56;;;;;;;2.33;1.73;;;;;;;;;;5075222;28;20494;-77
2021/12/30 03:43:22;;;;;;;3.42;2.03;;;;;;;;;;5075206;28;20400;-80
2021/12/30 03:45:48;;;;;;;2.55;1.88;;;;;;;;;;5075417;28;20040;-78
2021/12/30 03:48:14;;;;;;;3.33;2.35;;;;;;;;;;5075077;28;20472;-79
2021/12/30 03:50:44;;;;;;;4.00;2.42;;;;;;;;;;5075538;28;20399;-79
2021/12/30 03:53:11;;;;;;;2.92;2.00;;;;;;;;;;5075111;28;20028;-79
2021/12/30 03:55:37;;;;;;;2.95;1.88;;;;;;;;;;5075229;28;20082;-78
2021/12/30 03:58:03;;;;;;;2.70;1.92;;;;;;;;;;5075546;28;20028;-77
2021/12/30 04:00:30;;;;;;;2.85;1.88;;;;;;;;;;5078150;28;20081;-76
2021/12/30 04:02:56;;;;;;;3.65;2.05;;;;;;;;;;5074761;28;20559;-78
2021/12/30 04:05:23;;;;;;;3.25;2.15;;;;;;;;;;5074968;28;20039;-78
2021/12/30 04:07:49;;;;;;;3.88;2.70;;;;;;;;;;5075265;28;20059;-77
2021/12/30 04:10:17;;;;;;;3.00;1.92;;;;;;;;;;5074856;28;20028;-76
2021/12/30 04:12:45;;;;;;;3.00;2.13;;;;;;;;;;5057214;28;20028;-78
2021/12/30 04:15:14;;;;;;;2.25;1.73;;;;;;;;;;5074361;28;20024;-77
2021/12/30 04:17:41;;;;;;;2.92;2.30;;;;;;;;;;5073657;28;20028;-76
2021/12/30 04:20:09;;;;;;;3.08;2.70;;;;;;;;;;5074571;28;20032;-78
2021/12/30 04:22:39;;;;;;;2.92;2.38;;;;;;;;;;5074682;28;20043;-74
2021/12/30 04:25:07;;;;;;;3.65;2.10;;;;;;;;;;5074276;28;20078;-79
2021/12/30 04:27:34;;;;;;;3.53;2.13;;;;;;;;;;5074720;28;20433;-79
2021/12/30 04:30:00;;;;;;;3.75;2.67;;;;;;;;;;5074642;28;20375;-80
2021/12/30 04:32:26;;;;;;;5.90;4.35;;;;;;;;;;5074658;28;20471;-78
2021/12/30 04:34:52;;;;;;;3.92;2.85;;;;;;;;;;5074635;28;20480;-75
2021/12/30 04:37:18;;;;;;;3.72;2.88;;;;;;;;;;5074320;28;20029;-77
2021/12/30 04:39:47;;;;;;;2.92;2.20;;;;;;;;;;5074579;28;20503;-77
2021/12/30 04:42:13;;;;;;;3.25;2.92;;;;;;;;;;5074005;28;20047;-79
2021/12/30 04:44:39;;;;;;;2.50;2.13;;;;;;;;;;5074361;28;20082;-79
2021/12/30 04:47:06;;;;;;;3.85;2.95;;;;;;;;;;5074221;28;20028;-78
2021/12/30 04:49:32;;;;;;;3.15;2.85;;;;;;;;;;5074406;28;20055;-77
2021/12/30 04:52:06;;;;;;;4.35;3.72;;;;;;;;;;5074238;28;20025;-77
2021/12/30 04:54:32;;;;;;;4.35;3.45;;;;;;;;;;5074210;28;20036;-78
2021/12/30 04:57:04;;;;;;;4.13;3.33;;;;;;;;;;5072816;28;20028;-76
2021/12/30 04:59:30;;;;;;;4.30;3.25;;;;;;;;;;5074205;28;20025;-79
2021/12/30 05:01:58;;;;;;;5.20;3.92;;;;;;;;;;5073848;28;20166;-78
2021/12/30 05:04:24;;;;;;;3.40;2.95;;;;;;;;;;5074045;28;20033;-78
2021/12/30 05:06:53;;;;;;;5.53;4.07;;;;;;;;;;5074095;28;20086;-80
2021/12/30 05:09:45;;;;;;;6.07;3.95;;;;;;;;;;5073891;28;20029;-81
2021/12/30 05:12:11;;;;;;;5.10;3.40;;;;;;;;;;5073270;28;20400;-82
2021/12/30 05:14:37;;;;;;;5.18;3.63;;;;;;;;;;5073494;28;20060;-78
2021/12/30 05:17:04;;;;;;;4.90;3.90;;;;;;;;;;5073703;28;20108;-76
2021/12/30 05:19:35;;;;;;;3.72;3.00;;;;;;;;;;5073719;28;20077;-78
2021/12/30 05:22:01;;;;;;;5.57;4.43;;;;;;;;;;5073708;28;20120;-78
2021/12/30 05:24:27;;;;;;;4.97;3.60;;;;;;;;;;5073405;28;20457;-78
2021/12/30 05:26:53;;;;;;;5.53;4.00;;;;;;;;;;5072499;28;20027;-77
2021/12/30 05:29:19;;;;;;;4.35;3.50;;;;;;;;;;5073842;28;20048;-78
2021/12/30 05:31:45;;;;;;;6.35;4.50;;;;;;;;;;5073078;28;20110;-78
2021/12/30 05:34:12;;;;;;;5.25;4.13;;;;;;;;;;5073471;28;20028;-78
2021/12/30 05:36:38;;;;;;;6.60;4.45;;;;;;;;;;5073138;28;20032;-76
2021/12/30 05:39:08;;;;;;;5.47;3.90;;;;;;;;;;5073392;28;20028;-77
2021/12/30 05:41:37;;;;;;;4.05;3.58;;;;;;;;;;5072835;28;20117;-80
2021/12/30 05:44:06;;;;;;;5.18;3.83;;;;;;;;;;5073191;28;20480;-78
2021/12/30 05:46:43;;;;;;;5.72;4.10;;;;;;;;;;5071634;28;20075;-78
2021/12/30 05:49:10;;;;;;;4.15;3.03;;;;;;;;;;5073123;28;20028;-79
2021/12/30 05:51:41;;;;;;;4.95;3.63;;;;;;;;;;5072816;28;20126;-79
2021/12/30 05:54:07;;;;;;;6.57;4.80;;;;;;;;;;5073073;28;20491;-79
2021/12/30 05:56:33;;;;;;;6.15;4.45;;;;;;;;;;5071428;28;20051;-79
2021/12/30 05:58:59;;;;;;;8.32;5.32;;;;;;;;;;5072862;28;20024;-77
2021/12/30 06:01:26;;;;;;;6.90;5.10;;;;;;;;;;5071834;28;20032;-76
2021/12/30 06:03:52;;;;;;;6.22;4.30;;;;;;;;;;5071244;28;20029;-77
2021/12/30 06:06:18;;;;;;;4.35;2.97;;;;;;;;;;5072737;28;20523;-78
2021/12/30 06:08:46;;;;;;;8.75;6.03;;;;;;;;;;5072450;28;20579;-77
2021/12/30 06:11:12;;;;;;;4.65;3.33;;;;;;;;;;5072760;28;20028;-78
2021/12/30 06:13:38;;;;;;;6.25;4.40;;;;;;;;;;5072158;28;20029;-81
2021/12/30 06:16:05;;;;;;;9.18;5.95;;;;;;;;;;5072435;28;20889;-78
2021/12/30 06:18:31;;;;;;;5.05;3.20;;;;;;;;;;5072483;28;20070;-76
2021/12/30 06:20:59;;;;;;;5.68;4.38;;;;;;;;;;5071492;28;20024;-75
2021/12/30 06:23:25;;;;;;;4.80;4.18;;;;;;;;;;5072206;28;20032;-78
2021/12/30 06:25:52;;;;;;;6.97;4.03;;;;;;;;;;5071772;28;20057;-78
2021/12/30 06:28:18;;;;;;;4.53;3.33;;;;;;;;;;5072840;28;20494;-80
2021/12/30 06:30:47;;;;;;;4.78;3.72;;;;;;;;;;5072187;28;20028;-79
2021/12/30 06:33:13;;;;;;;5.95;3.97;;;;;;;;;;5072312;28;20527;-79
2021/12/30 06:35:39;;;;;;;5.57;3.88;;;;;;;;;;5072135;28;20021;-79
2021/12/30 06:38:07;;;;;;;5.60;4.57;;;;;;;;;;5069540;28;20107;-79
2021/12/30 06:40:34;;;;;;;6.90;4.85;;;;;;;;;;5052803;28;20028;-81
2021/12/30 06:43:00;;;;;;;7.38;4.97;;;;;;;;;;5050867;28;20033;-78
2021/12/30 06:45:29;;;;;;;6.05;4.05;;;;;;;;;;5069714;28;20029;-76
2021/12/30 06:47:55;;;;;;;8.55;5.63;;;;;;;;;;5070785;28;20035;-78
2021/12/30 06:50:24;;;;;;;8.23;4.72;;;;;;;;;;5071103;28;20040;-77
2021/12/30 06:52:50;;;;;;;7.03;4.95;;;;;;;;;;5071237;28;20056;-84
2021/12/30 06:55:19;;;;;;;5.40;3.67;;;;;;;;;;5069760;28;20063;-77
2021/12/30 06:57:45;;;;;;;7.82;5.75;;;;;;;;;;5070071;28;20446;-75
2021/12/30 07:00:12;;;;;;;5.18;3.75;;;;;;;;;;5071289;28;20458;-78
2021/12/30 07:02:38;;;;;;;7.18;5.05;;;;;;;;;;5070139;28;20039;-80
2021/12/30 07:05:05;;;;;;;7.70;4.03;;;;;;;;;;5070887;28;20043;-78
2021/12/30 07:07:31;;;;;;;5.22;4.13;;;;;;;;;;5070833;28;20029;-78
2021/12/30 07:09:57;;;;;;;4.63;3.53;;;;;;;;;;5070986;28;20021;-78
2021/12/30 07:12:23;;;;;;;6.93;4.60;;;;;;;;;;5070271;28;20066;-76
2021/12/30 07:14:49;;;;;;;8.27;6.53;;;;;;;;;;5070361;28;20422;-80
2021/12/30 07:17:15;;;;;;;8.02;5.13;;;;;;;;;;5070754;28;20056;-80
2021/12/30 07:19:41;;;;;;;7.22;5.65;;;;;;;;;;5070468;28;20043;-79
2021/12/30 07:22:07;;;;;;;7.10;5.22;;;;;;;;;;5070826;28;20028;-79
2021/12/30 07:24:33;;;;;;;7.15;5.38;;;;;;;;;;5070166;28;20455;-78
2021/12/30 07:26:59;;;;;;;6.13;4.43;;;;;;;;;;5069995;28;20072;-82
2021/12/30 07:29:26;;;;;;;8.10;6.32;;;;;;;;;;5070576;28;20025;-82
2021/12/30 07:31:52;;;;;;;7.35;5.80;;;;;;;;;;5069055;28;20514;-80
2021/12/30 07:34:18;;;;;;;6.10;3.72;;;;;;;;;;5069421;28;20039;-79
2021/12/30 07:36:44;;;;;;;9.10;6.53;;;;;;;;;;5070373;28;20095;-78
2021/12/30 07:39:10;;;;;;;6.60;4.90;;;;;;;;;;5069864;28;20109;-77
2021/12/30 07:41:36;;;;;;;8.20;6.68;;;;;;;;;;5069616;28;20041;-79
2021/12/30 07:44:05;;;;;;;7.68;5.50;;;;;;;;;;5070047;28;20501;-81
2021/12/30 07:46:31;;;;;;;7.70;4.82;;;;;;;;;;5069848;28;20094;-77
2021/12/30 07:49:00;;;;;;;9.10;6.45;;;;;;;;;;5071434;28;20036;-77
2021/12/30 07:51:26;;;;;;;8.82;5.57;;;;;;;;;;5074172;28;20475;-78
2021/12/30 07:53:54;;;;;;;8.25;5.97;;;;;;;;;;5073823;28;20058;-76
2021/12/30 07:56:20;;;;;;;9.07;6.47;;;;;;;;;;5072595;28;20028;-76
2021/12/30 07:58:47;;;;;;;9.10;5.70;;;;;;;;;;5072253;28;20565;-74
2021/12/30 08:01:13;;;;;;;5.28;4.00;;;;;;;;;;5073845;28;20047;-78
2021/12/30 08:03:42;;;;;;;7.07;5.00;;;;;;;;;;5073268;28;20119;-77
2021/12/30 08:06:09;;;;;;;7.45;4.97;;;;;;;;;;5073852;28;20063;-75
2021/12/30 08:08:35;;;;;;;6.22;4.78;;;;;;;;;;5073103;28;20076;-73
2021/12/30 08:11:01;;;;;;;5.43;3.63;;;;;;;;;;5073018;28;20456;-74
2021/12/30 08:13:28;;;;;;;4.13;3.10;;;;;;;;;;5073939;28;20028;-75
2021/12/30 08:15:56;;;;;;;3.45;2.55;;;;;;;;;;5073548;28;20171;-75
2021/12/30 08:18:22;;;;;;;4.68;3.10;;;;;;;;;;5074017;28;20070;-75
2021/12/30 08:20:48;;;;;;;5.22;3.25;;;;;;;;;;5073195;28;20464;-68
2021/12/30 08:23:15;;;;;;;5.10;3.78;;;;;;;;;;5073471;28;20107;-76
2021/12/30 08:25:43;;;;;;;5.03;3.65;;;;;;;;;;5072363;28;20085;-74
2021/12/30 08:28:09;;;;;;;4.93;4.10;;;;;;;;;;5072479;28;20036;-76
2021/12/30 08:30:35;;;;;;;5.00;3.05;;;;;;;;;;5073221;28;20490;-76
2021/12/30 08:33:01;;;;;;;3.60;2.47;;;;;;;;;;5073036;28;20017;-77
2021/12/30 08:35:28;;;;;;;5.60;4.18;;;;;;;;;;5073418;28;20034;-79
2021/12/30 08:37:54;;;;;;;4.85;3.30;;;;;;;;;;5073179;28;20029;-80
2021/12/30 08:40:20;;;;;;;4.50;3.20;;;;;;;;;;5072246;28;20024;-80
2021/12/30 08:42:46;;;;;;;5.55;3.72;;;;;;;;;;5072882;28;20043;-80
2021/12/30 08:45:13;;;;;;;5.00;3.47;;;;;;;;;;5073061;28;20028;-80
2021/12/30 08:47:42;;;;;;;5.53;4.05;;;;;;;;;;5071981;28;20025;-78
2021/12/30 08:50:10;;;;;;;6.90;4.40;;;;;;;;;;5072150;28;20048;-78
2021/12/30 08:52:37;;;;;;;5.30;3.17;;;;;;;;;;5072852;28;20538;-82
2021/12/30 08:55:04;;;;;;;7.53;3.88;;;;;;;;;;5073072;28;20067;-78
2021/12/30 08:57:33;;;;;;;8.50;4.47;;;;;;;;;;5072877;28;20064;-80
2021/12/30 09:00:02;;;;;;;5.20;3.97;;;;;;;;;;5070554;28;20039;-77
2021/12/30 09:02:28;;;;;;;6.78;5.35;;;;;;;;;;5072290;28;20082;-77
2021/12/30 09:04:54;;;;;;;7.22;4.47;;;;;;;;;;5071454;28;20482;-78
2021/12/30 09:07:21;;;;;;;6.32;4.53;;;;;;;;;;5072749;28;20086;-77
2021/12/30 09:09:50;;;;;;;6.90;4.03;;;;;;;;;;5072429;28;20551;-79
2021/12/30 09:12:19;;;;;;;3.92;3.17;;;;;;;;;;5073078;28;20028;-79
2021/12/30 09:14:45;;;;;;;7.05;4.90;;;;;;;;;;5071299;28;20463;-78
2021/12/30 09:17:11;;;;;;;8.02;5.70;;;;;;;;;;5070080;28;20033;-75
2021/12/30 09:19:37;;;;;;;6.25;4.60;;;;;;;;;;5072297;28;20029;-78
2021/12/30 09:22:03;;;;;;;4.80;3.80;;;;;;;;;;5071924;28;20469;-79
2021/12/30 09:24:30;;;;;;;4.88;2.97;;;;;;;;;;5072450;28;20429;-75
2021/12/30 09:26:56;;;;;;;5.70;3.85;;;;;;;;;;5072471;28;20119;-78
2021/12/30 09:29:22;;;;;;;7.53;3.65;;;;;;;;;;5072543;28;20040;-78
2021/12/30 09:31:49;;;;;;;9.27;6.00;;;;;;;;;;5072029;28;20074;-76
2021/12/30 09:34:16;;;;;;;8.02;5.47;;;;;;;;;;5071732;28;20061;-77
2021/12/30 09:36:42;;;;;;;6.22;4.75;;;;;;;;;;5072020;28;20020;-78
2021/12/30 09:39:13;;;;;;;5.68;2.63;;;;;;;;;;5061182;28;20048;-78
2021/12/30 09:41:44;;;;;;;4.82;2.75;;;;;;;;;;5059246;28;20041;-77
2021/12/30 09:44:10;;;;;;;4.50;2.88;;;;;;;;;;5051161;28;20029;-75
2021/12/30 09:46:37;;;;;;;3.92;3.10;;;;;;;;;;5054082;28;20029;-78
2021/12/30 09:49:04;;;;;;;3.67;2.60;;;;;;;;;;5071581;28;20039;-80
2021/12/30 09:51:30;;;;;;;4.63;2.60;;;;;;;;;;5071496;28;20020;-79
2021/12/30 09:54:03;;;;;;;11.23;5.53;;;;;;;;;;5068140;28;20029;-78
2021/12/30 09:56:30;;;;;;;4.20;3.17;;;;;;;;;;5070375;28;20413;-78
2021/12/30 09:58:56;;;;;;;12.68;7.95;;;;;;;;;;5069423;28;20387;-78
2021/12/30 10:01:23;;;;;;;9.77;6.45;;;;;;;;;;5071142;28;20033;-77
2021/12/30 10:03:50;;;;;;;5.97;3.28;;;;;;;;;;5070838;28;20086;-80
2021/12/30 10:06:17;;;;;;;7.03;4.55;;;;;;;;;;5068684;28;20035;-79
2021/12/30 10:09:14;;;;;;;12.77;5.30;;;;;;;;;;5071617;28;20032;-79
2021/12/30 10:12:00;;;;;;;5.90;3.38;;;;;;;;;;5061336;28;20131;-78
2021/12/30 10:14:37;;;;;;;13.40;8.35;;;;;;;;;;5070943;28;20772;-76
2021/12/30 10:17:26;;;;;;;6.03;3.88;;;;;;;;;;5070687;28;20107;-79
2021/12/30 10:19:52;;;;;;;6.93;5.22;;;;;;;;;;5070581;28;20119;-81
2021/12/30 10:22:22;;;;;;;4.78;3.33;;;;;;;;;;5070643;28;20036;-79
2021/12/30 10:24:49;;;;;;;5.75;4.53;;;;;;;;;;5070833;28;20051;-78
2021/12/30 10:27:34;;;;;;;7.60;6.18;;;;;;;;;;5070678;28;20024;-75
2021/12/30 10:30:00;;;;;;;;;;;;;;;;;;5071774;28;20028;-78
2021/12/30 10:32:28;;;;;;;6.43;4.88;;;;;;;;;;5070558;28;19915;-78
2021/12/30 10:35:13;;;;;;;5.85;3.40;;;;;;;;;;5070628;28;20078;-80
2021/12/30 10:37:38;;;;;;;;;;;;;;;;;;5069454;28;20064;-80
2021/12/30 10:40:24;;;;;;;8.88;5.03;;;;;;;;;;5070721;28;20001;-79
2021/12/30 10:42:52;;;;;;;4.78;3.63;;;;;;;;;;5070754;28;20051;-79
2021/12/30 10:45:20;;;;;;;5.32;4.20;;;;;;;;;;5069551;28;20596;-79
2021/12/30 10:47:55;;;;;;;7.97;5.20;;;;;;;;;;5068018;28;20080;-79
2021/12/30 10:50:22;;;;;;;10.60;7.07;;;;;;;;;;5070724;28;20415;-81
2021/12/30 10:52:49;;;;;;;6.25;4.95;;;;;;;;;;5069548;28;20033;-79
2021/12/30 10:55:16;;;;;;;7.03;5.18;;;;;;;;;;5069979;28;20027;-79
2021/12/30 10:57:42;;;;;;;6.50;4.97;;;;;;;;;;5069197;28;20039;-79
2021/12/30 11:00:09;;;;;;;5.70;3.60;;;;;;;;;;5069696;28;20048;-78
2021/12/30 11:02:35;;;;;;;9.00;6.80;;;;;;;;;;5070117;28;20698;-78
2021/12/30 11:05:07;;;;;;;4.80;3.50;;;;;;;;;;5070460;28;20142;-82
2021/12/30 11:07:42;;;;;;;6.82;5.13;;;;;;;;;;5067860;28;20068;-79
2021/12/30 11:10:09;;;;;;;8.60;4.03;;;;;;;;;;5067413;28;20052;-82
2021/12/30 11:12:38;;;;;;;5.00;3.42;;;;;;;;;;5069642;28;20047;-80
2021/12/30 11:15:19;;;;;;;6.13;4.15;;;;;;;;;;5068692;28;20391;-83
2021/12/30 11:17:45;;;;;;;5.15;3.25;;;;;;;;;;5069193;28;20104;-77
2021/12/30 11:20:12;;;;;;;7.97;5.70;;;;;;;;;;5069681;28;20027;-78
2021/12/30 11:22:39;;;;;;;8.25;5.68;;;;;;;;;;5069919;28;20043;-78
2021/12/30 11:25:07;;;;;;;6.75;5.22;;;;;;;;;;5072542;28;20048;-80
2021/12/30 11:27:35;;;;;;;5.53;4.22;;;;;;;;;;5073733;28;20108;-75
2021/12/30 11:30:04;;;;;;;7.28;4.20;;;;;;;;;;5072705;28;20020;-77
2021/12/30 11:32:31;;;;;;;4.30;3.75;;;;;;;;;;5071469;28;20441;-80
2021/12/30 11:35:02;;;;;;;5.13;4.57;;;;;;;;;;5071470;28;20111;-79
2021/12/30 11:37:28;;;;;;;5.15;3.38;;;;;;;;;;5073124;28;20413;-81
2021/12/30 11:39:56;;;;;;;6.35;4.30;;;;;;;;;;5072735;28;20506;-78
2021/12/30 11:42:27;;;;;;;5.13;4.20;;;;;;;;;;5073005;28;20039;-78
2021/12/30 11:44:54;;;;;;;5.50;4.47;;;;;;;;;;5072991;28;20078;-78
2021/12/30 11:47:35;;;;;;;5.47;3.70;;;;;;;;;;5074226;28;20123;-81
2021/12/30 11:50:04;;;;;;;5.50;4.18;;;;;;;;;;5073403;28;20467;-79
2021/12/30 11:52:51;;;;;;;3.70;2.85;;;;;;;;;;5072009;28;20045;-81
2021/12/30 11:55:36;;;;;;;5.28;4.22;;;;;;;;;;5073972;28;20094;-78
2021/12/30 11:58:21;;;;;;;7.72;5.45;;;;;;;;;;5073483;28;20033;-78
2021/12/30 12:00:49;;;;;;;6.72;5.28;;;;;;;;;;5073845;28;20025;-78
2021/12/30 12:03:34;;;;;;;5.75;4.68;;;;;;;;;;5072568;28;20141;-78
2021/12/30 12:06:01;;;;;;;6.65;5.65;;;;;;;;;;5073726;28;20028;-78
2021/12/30 12:08:29;;;;;;;5.03;4.07;;;;;;;;;;5073434;28;20031;-81
2021/12/30 12:11:14;;;;;;;8.68;6.13;;;;;;;;;;5073797;28;20115;-77
2021/12/30 12:13:41;;;;;;;10.68;5.95;;;;;;;;;;5073525;28;20091;-81
2021/12/30 12:16:08;;;;;;;4.57;4.05;;;;;;;;;;5073183;28;20031;-80
2021/12/30 12:18:34;;;;;;;5.13;4.35;;;;;;;;;;5071321;28;20078;-81
2021/12/30 12:21:06;;;;;;;5.78;4.05;;;;;;;;;;5072502;28;20432;-78
2021/12/30 12:23:37;;;;;;;7.15;4.93;;;;;;;;;;5072650;28;20552;-81
2021/12/30 12:26:14;;;;;;;5.32;3.63;;;;;;;;;;5070200;28;20045;-78
2021/12/30 12:28:41;;;;;;;5.15;3.75;;;;;;;;;;5071305;28;20020;-82
2021/12/30 12:31:08;;;;;;;5.93;4.00;;;;;;;;;;5073510;28;20024;-79
2021/12/30 12:33:35;;;;;;;6.70;4.70;;;;;;;;;;5066113;28;20047;-78
2021/12/30 12:36:11;;;;;;;5.65;4.15;;;;;;;;;;5070134;28;20456;-79
2021/12/30 12:38:47;;;;;;;5.95;4.85;;;;;;;;;;5072768;28;20029;-77
2021/12/30 12:41:24;;;;;;;6.00;3.90;;;;;;;;;;5072801;28;20035;-78
2021/12/30 12:43:51;;;;;;;6.63;5.13;;;;;;;;;;5073989;28;20024;-80
2021/12/30 12:46:18;;;;;;;9.10;7.03;;;;;;;;;;5074031;28;20040;-77
2021/12/30 12:48:53;;;;;;;6.28;5.07;;;;;;;;;;5073378;28;20099;-80
2021/12/30 12:51:24;;;;;;;5.15;4.47;;;;;;;;;;5073297;28;20032;-79
2021/12/30 12:53:53;;;;;;;6.93;6.05;;;;;;;;;;5074004;28;20601;-76
2021/12/30 12:56:38;;;;;;;6.68;5.97;;;;;;;;;;5072571;28;20021;-80
2021/12/30 12:59:09;;;;;;;5.50;4.60;;;;;;;;;;5072909;28;20375;-79
2021/12/30 13:01:36;;;;;;;8.20;6.15;;;;;;;;;;5073640;28;20028;-78
2021/12/30 13:04:03;;;;;;;6.82;5.65;;;;;;;;;;5071622;28;20452;-76
2021/12/30 13:06:31;;;;;;;6.03;4.78;;;;;;;;;;5072377;28;20033;-78
2021/12/30 13:09:03;;;;;;;7.22;5.75;;;;;;;;;;5072948;28;20091;-77
2021/12/30 13:11:31;;;;;;;10.63;6.93;;;;;;;;;;5071803;28;20518;-77
2021/12/30 13:14:00;;;;;;;6.35;4.13;;;;;;;;;;5073336;28;20025;-82
2021/12/30 13:16:28;;;;;;;6.97;5.68;;;;;;;;;;5072813;28;20036;-74
2021/12/30 13:19:01;;;;;;;7.05;5.32;;;;;;;;;;5069380;28;20458;-77
2021/12/30 13:21:27;;;;;;;6.97;4.25;;;;;;;;;;5072143;28;21452;-80
2021/12/30 13:23:54;;;;;;;5.95;5.35;;;;;;;;;;5069840;28;20038;-77
2021/12/30 13:26:20;;;;;;;7.60;5.65;;;;;;;;;;5072684;28;20044;-78
2021/12/30 13:28:50;;;;;;;7.35;5.25;;;;;;;;;;5071071;28;20033;-78
2021/12/30 13:31:17;;;;;;;8.18;6.30;;;;;;;;;;5072369;28;20031;-82
2021/12/30 13:33:56;;;;;;;8.27;5.97;;;;;;;;;;5072939;28;20020;-78
2021/12/30 13:36:23;;;;;;;7.70;6.20;;;;;;;;;;5072368;28;20731;-78
2021/12/30 13:38:50;;;;;;;6.47;5.30;;;;;;;;;;5066817;28;20036;-80
2021/12/30 13:41:17;;;;;;;5.80;4.88;;;;;;;;;;5070994;28;20032;-78
2021/12/30 13:43:44;;;;;;;5.90;5.10;;;;;;;;;;5072427;28;20032;-77
2021/12/30 13:46:11;;;;;;;10.27;6.88;;;;;;;;;;5071722;28;20094;-78
2021/12/30 13:51:26;;;;;;;11.90;7.65;;;;;;;;;;5072966;28;20094;-77
2021/12/30 13:53:54;;;;;;;11.73;6.95;;;;;;;;;;5072030;28;20020;-78
2021/12/30 13:56:24;;;;;;;12.40;10.13;;;;;;;;;;5071420;28;20376;-76
2021/12/30 13:58:51;;;;;;;12.13;9.15;;;;;;;;;;5071941;28;20028;-77
2021/12/30 14:01:18;;;;;;;8.52;6.35;;;;;;;;;;5071451;28;20028;-77
2021/12/30 14:03:46;;;;;;;9.55;7.13;;;;;;;;;;5072304;28;20043;-74
2021/12/30 14:06:31;;;;;;;7.90;6.03;;;;;;;;;;5072537;28;20028;-76
2021/12/30 14:08:57;;;;;;;;;;;;;;;;;;5073234;28;20073;-77
2021/12/30 14:11:42;;;;;;;11.68;7.82;;;;;;;;;;5072738;28;20093;-75
2021/12/30 14:14:09;;;;;;;9.35;6.95;;;;;;;;;;5072609;28;20036;-74
2021/12/30 14:16:43;;;;;;;10.98;8.40;;;;;;;;;;5071289;28;20032;-75
2021/12/30 14:19:10;;;;;;;9.57;6.95;;;;;;;;;;5072440;28;20036;-74
2021/12/30 14:21:40;;;;;;;13.70;9.65;;;;;;;;;;5071955;28;20353;-77
2021/12/30 14:24:20;;;;;;;9.60;7.65;;;;;;;;;;5072310;28;20041;-76
2021/12/30 14:26:47;;;;;;;13.43;9.38;;;;;;;;;;5072224;28;20024;-75
2021/12/30 14:29:17;;;;;;;9.60;6.70;;;;;;;;;;5072121;28;20102;-74
2021/12/30 14:31:56;;;;;;;12.25;8.18;;;;;;;;;;5072211;28;20021;-75
2021/12/30 14:34:25;;;;;;;10.32;6.88;;;;;;;;;;5072359;28;20032;-74
2021/12/30 14:36:56;;;;;;;10.27;7.93;;;;;;;;;;5072099;28;20035;-75
2021/12/30 14:39:42;;;;;;;13.38;10.15;;;;;;;;;;5072454;28;20028;-76
2021/12/30 14:42:27;;;;;;;11.23;8.18;;;;;;;;;;5072340;28;20123;-77
2021/12/30 14:44:57;;;;;;;9.88;7.50;;;;;;;;;;5072236;28;20017;-74
2021/12/30 14:47:28;;;;;;;11.30;8.20;;;;;;;;;;5072347;28;20032;-75
2021/12/30 14:50:01;;;;;;;10.90;8.98;;;;;;;;;;5072463;28;20040;-76
2021/12/30 14:52:37;;;;;;;15.07;10.73;;;;;;;;;;5071973;28;20021;-76
2021/12/30 14:55:04;;;;;;;12.85;8.80;;;;;;;;;;5072352;28;20629;-78
2021/12/30 14:57:31;;;;;;;11.75;8.45;;;;;;;;;;5071987;28;20025;-77